sensor_id;sensor_type;location;lat;lon;timestamp;temperature;humidity
10431;DHT22;5262;59.958;17.726;2024-02-16T00:00:53;0.40;99.90
10431;DHT22;5262;59.958;17.726;2024-02-16T00:03:19;0.50;99.90
10431;DHT22;5262;59.958;17.726;2024-02-16T00:05:46;0.40;99.90
10431;DHT22;5262;59.958;17.726;2024-02-16T00:08:12;0.50;99.90
10431;DHT22;5262;59.958;17.726;2024-02-16T00:10:38;0.50;99.90
10431;DHT22;5262;59.958;17.726;2024-02-16T00:13:04;0.60;99.90
10431;DHT22;5262;59.958;17.726;2024-02-16T00:15:30;0.60;99.90
10431;DHT22;5262;59.958;17.726;2024-02-16T00:17:55;0.60;99.90
10431;DHT22;5262;59.958;17.726;2024-02-16T00:20:21;0.60;99.90
10431;DHT22;5262;59.958;17.726;2024-02-16T00:22:49;0.60;99.90
10431;DHT22;5262;59.958;17.726;2024-02-16T00:25:15;0.60;99.90
10431;DHT22;5262;59.958;17.726;2024-02-16T00:27:41;0.70;99.90
10431;DHT22;5262;59.958;17.726;2024-02-16T00:30:07;0.80;99.90
10431;DHT22;5262;59.958;17.726;2024-02-16T00:32:34;0.80;99.90
10431;DHT22;5262;59.958;17.726;2024-02-16T00:34:59;0.80;99.90
10431;DHT22;5262;59.958;17.726;2024-02-16T00:37:25;0.80;99.90
10431;DHT22;5262;59.958;17.726;2024-02-16T00:39:51;0.80;99.90
10431;DHT22;5262;59.958;17.726;2024-02-16T00:42:18;0.90;99.90
10431;DHT22;5262;59.958;17.726;2024-02-16T00:44:43;0.90;99.90
10431;DHT22;5262;59.958;17.726;2024-02-16T00:47:09;0.90;99.90
10431;DHT22;5262;59.958;17.726;2024-02-16T00:49:35;0.90;99.90
10431;DHT22;5262;59.958;17.726;2024-02-16T00:52:01;0.90;99.90
10431;DHT22;5262;59.958;17.726;2024-02-16T00:54:30;0.90;99.90
10431;DHT22;5262;59.958;17.726;2024-02-16T00:56:56;0.90;99.90
10431;DHT22;5262;59.958;17.726;2024-02-16T00:59:26;0.90;99.90
10431;DHT22;5262;59.958;17.726;2024-02-16T01:01:52;0.80;99.90
10431;DHT22;5262;59.958;17.726;2024-02-16T01:04:17;0.80;99.90
10431;DHT22;5262;59.958;17.726;2024-02-16T01:06:44;0.90;99.90
10431;DHT22;5262;59.958;17.726;2024-02-16T01:09:09;0.80;99.90
10431;DHT22;5262;59.958;17.726;2024-02-16T01:11:41;0.80;99.90
10431;DHT22;5262;59.958;17.726;2024-02-16T01:14:07;0.90;99.90
10431;DHT22;5262;59.958;17.726;2024-02-16T01:16:33;0.90;99.90
10431;DHT22;5262;59.958;17.726;2024-02-16T01:18:59;0.90;99.90
10431;DHT22;5262;59.958;17.726;2024-02-16T01:21:25;0.90;99.90
10431;DHT22;5262;59.958;17.726;2024-02-16T01:23:50;0.90;99.90
10431;DHT22;5262;59.958;17.726;2024-02-16T01:26:16;0.90;99.90
10431;DHT22;5262;59.958;17.726;2024-02-16T01:28:42;0.90;99.90
10431;DHT22;5262;59.958;17.726;2024-02-16T01:31:07;0.90;99.90
10431;DHT22;5262;59.958;17.726;2024-02-16T01:33:36;0.90;99.90
10431;DHT22;5262;59.958;17.726;2024-02-16T01:36:03;0.90;99.90
10431;DHT22;5262;59.958;17.726;2024-02-16T01:38:29;0.90;99.90
10431;DHT22;5262;59.958;17.726;2024-02-16T01:40:54;0.90;99.90
10431;DHT22;5262;59.958;17.726;2024-02-16T01:43:20;0.90;99.90
10431;DHT22;5262;59.958;17.726;2024-02-16T01:45:46;1.00;99.90
10431;DHT22;5262;59.958;17.726;2024-02-16T01:48:14;1.00;99.90
10431;DHT22;5262;59.958;17.726;2024-02-16T01:50:42;1.00;99.90
10431;DHT22;5262;59.958;17.726;2024-02-16T01:53:08;1.00;99.90
10431;DHT22;5262;59.958;17.726;2024-02-16T01:55:34;1.10;99.90
10431;DHT22;5262;59.958;17.726;2024-02-16T01:58:00;1.10;99.90
10431;DHT22;5262;59.958;17.726;2024-02-16T02:00:26;1.10;99.90
10431;DHT22;5262;59.958;17.726;2024-02-16T02:02:52;1.00;99.90
10431;DHT22;5262;59.958;17.726;2024-02-16T02:05:17;1.00;99.90
10431;DHT22;5262;59.958;17.726;2024-02-16T02:07:43;1.10;99.90
10431;DHT22;5262;59.958;17.726;2024-02-16T02:10:10;1.10;99.90
10431;DHT22;5262;59.958;17.726;2024-02-16T02:12:39;1.10;99.90
10431;DHT22;5262;59.958;17.726;2024-02-16T02:15:05;1.10;99.90
10431;DHT22;5262;59.958;17.726;2024-02-16T02:17:31;1.00;99.90
10431;DHT22;5262;59.958;17.726;2024-02-16T02:19:56;1.10;99.90
10431;DHT22;5262;59.958;17.726;2024-02-16T02:22:22;1.10;99.90
10431;DHT22;5262;59.958;17.726;2024-02-16T02:24:48;1.10;99.90
10431;DHT22;5262;59.958;17.726;2024-02-16T02:27:15;1.10;99.90
10431;DHT22;5262;59.958;17.726;2024-02-16T02:29:41;1.10;99.90
10431;DHT22;5262;59.958;17.726;2024-02-16T02:32:07;1.10;99.90
10431;DHT22;5262;59.958;17.726;2024-02-16T02:34:33;1.10;99.90
10431;DHT22;5262;59.958;17.726;2024-02-16T02:36:59;1.10;99.90
10431;DHT22;5262;59.958;17.726;2024-02-16T02:39:25;1.10;99.90
10431;DHT22;5262;59.958;17.726;2024-02-16T02:41:51;1.10;99.90
10431;DHT22;5262;59.958;17.726;2024-02-16T02:44:17;1.20;99.90
10431;DHT22;5262;59.958;17.726;2024-02-16T02:46:43;1.10;99.90
10431;DHT22;5262;59.958;17.726;2024-02-16T02:49:08;1.10;99.90
10431;DHT22;5262;59.958;17.726;2024-02-16T02:51:34;1.20;99.90
10431;DHT22;5262;59.958;17.726;2024-02-16T02:53:59;1.20;99.90
10431;DHT22;5262;59.958;17.726;2024-02-16T02:56:25;1.10;99.90
10431;DHT22;5262;59.958;17.726;2024-02-16T02:58:51;1.10;99.90
10431;DHT22;5262;59.958;17.726;2024-02-16T03:01:16;1.20;99.90
10431;DHT22;5262;59.958;17.726;2024-02-16T03:03:45;1.20;99.90
10431;DHT22;5262;59.958;17.726;2024-02-16T03:06:10;1.20;99.90
10431;DHT22;5262;59.958;17.726;2024-02-16T03:08:36;1.20;99.90
10431;DHT22;5262;59.958;17.726;2024-02-16T03:11:02;1.20;99.90
10431;DHT22;5262;59.958;17.726;2024-02-16T03:13:29;1.20;99.90
10431;DHT22;5262;59.958;17.726;2024-02-16T03:15:55;1.10;99.90
10431;DHT22;5262;59.958;17.726;2024-02-16T03:18:21;1.20;99.90
10431;DHT22;5262;59.958;17.726;2024-02-16T03:20:47;1.20;99.90
10431;DHT22;5262;59.958;17.726;2024-02-16T03:23:15;1.10;99.90
10431;DHT22;5262;59.958;17.726;2024-02-16T03:25:41;1.20;99.90
10431;DHT22;5262;59.958;17.726;2024-02-16T03:28:12;1.20;99.90
10431;DHT22;5262;59.958;17.726;2024-02-16T03:30:38;1.20;99.90
10431;DHT22;5262;59.958;17.726;2024-02-16T03:33:04;1.20;99.90
10431;DHT22;5262;59.958;17.726;2024-02-16T03:35:30;1.20;99.90
10431;DHT22;5262;59.958;17.726;2024-02-16T03:37:55;1.20;99.90
10431;DHT22;5262;59.958;17.726;2024-02-16T03:40:23;1.20;99.90
10431;DHT22;5262;59.958;17.726;2024-02-16T03:42:51;1.20;99.90
10431;DHT22;5262;59.958;17.726;2024-02-16T03:45:16;1.20;99.90
10431;DHT22;5262;59.958;17.726;2024-02-16T03:47:42;1.20;99.90
10431;DHT22;5262;59.958;17.726;2024-02-16T03:50:08;1.30;99.90
10431;DHT22;5262;59.958;17.726;2024-02-16T03:52:34;1.30;99.90
10431;DHT22;5262;59.958;17.726;2024-02-16T03:55:00;1.30;99.90
10431;DHT22;5262;59.958;17.726;2024-02-16T03:57:26;1.30;99.90
10431;DHT22;5262;59.958;17.726;2024-02-16T03:59:51;1.30;99.90
10431;DHT22;5262;59.958;17.726;2024-02-16T04:02:17;1.30;99.90
10431;DHT22;5262;59.958;17.726;2024-02-16T04:04:44;1.40;99.90
10431;DHT22;5262;59.958;17.726;2024-02-16T04:07:10;1.40;99.90
10431;DHT22;5262;59.958;17.726;2024-02-16T04:09:35;1.30;99.90
10431;DHT22;5262;59.958;17.726;2024-02-16T04:12:02;1.40;99.90
10431;DHT22;5262;59.958;17.726;2024-02-16T04:14:29;1.40;99.90
10431;DHT22;5262;59.958;17.726;2024-02-16T04:16:56;1.40;99.90
10431;DHT22;5262;59.958;17.726;2024-02-16T04:19:26;1.50;99.90
10431;DHT22;5262;59.958;17.726;2024-02-16T04:21:52;1.40;99.90
10431;DHT22;5262;59.958;17.726;2024-02-16T04:24:18;1.40;99.90
10431;DHT22;5262;59.958;17.726;2024-02-16T04:26:44;1.50;99.90
10431;DHT22;5262;59.958;17.726;2024-02-16T04:29:10;1.50;99.90
10431;DHT22;5262;59.958;17.726;2024-02-16T04:31:39;1.50;99.90
10431;DHT22;5262;59.958;17.726;2024-02-16T04:34:05;1.50;99.90
10431;DHT22;5262;59.958;17.726;2024-02-16T04:36:31;1.50;99.90
10431;DHT22;5262;59.958;17.726;2024-02-16T04:38:57;1.50;99.90
10431;DHT22;5262;59.958;17.726;2024-02-16T04:41:23;1.50;99.90
10431;DHT22;5262;59.958;17.726;2024-02-16T04:43:48;1.50;99.90
10431;DHT22;5262;59.958;17.726;2024-02-16T04:46:18;1.50;99.90
10431;DHT22;5262;59.958;17.726;2024-02-16T04:48:43;1.50;99.90
10431;DHT22;5262;59.958;17.726;2024-02-16T04:51:10;1.50;99.90
10431;DHT22;5262;59.958;17.726;2024-02-16T04:53:36;1.60;99.90
10431;DHT22;5262;59.958;17.726;2024-02-16T04:56:02;1.60;99.90
10431;DHT22;5262;59.958;17.726;2024-02-16T04:58:28;1.60;99.90
10431;DHT22;5262;59.958;17.726;2024-02-16T05:00:53;1.60;99.90
10431;DHT22;5262;59.958;17.726;2024-02-16T05:03:19;1.60;99.90
10431;DHT22;5262;59.958;17.726;2024-02-16T05:05:45;1.60;99.90
10431;DHT22;5262;59.958;17.726;2024-02-16T05:08:11;1.70;99.90
10431;DHT22;5262;59.958;17.726;2024-02-16T05:10:37;1.60;99.90
10431;DHT22;5262;59.958;17.726;2024-02-16T05:13:03;1.60;99.90
10431;DHT22;5262;59.958;17.726;2024-02-16T05:15:29;1.60;99.90
10431;DHT22;5262;59.958;17.726;2024-02-16T05:17:54;1.60;99.90
10431;DHT22;5262;59.958;17.726;2024-02-16T05:20:20;1.70;99.90
10431;DHT22;5262;59.958;17.726;2024-02-16T05:22:46;1.70;99.90
10431;DHT22;5262;59.958;17.726;2024-02-16T05:25:13;1.70;99.90
10431;DHT22;5262;59.958;17.726;2024-02-16T05:27:39;1.60;99.90
10431;DHT22;5262;59.958;17.726;2024-02-16T05:30:05;1.70;99.90
10431;DHT22;5262;59.958;17.726;2024-02-16T05:32:37;1.70;99.90
10431;DHT22;5262;59.958;17.726;2024-02-16T05:35:03;1.70;99.90
10431;DHT22;5262;59.958;17.726;2024-02-16T05:37:46;1.70;99.90
10431;DHT22;5262;59.958;17.726;2024-02-16T05:40:15;1.70;99.90
10431;DHT22;5262;59.958;17.726;2024-02-16T05:42:53;1.70;99.90
10431;DHT22;5262;59.958;17.726;2024-02-16T05:45:19;1.70;99.90
10431;DHT22;5262;59.958;17.726;2024-02-16T05:47:46;1.70;99.90
10431;DHT22;5262;59.958;17.726;2024-02-16T05:50:13;1.70;99.90
10431;DHT22;5262;59.958;17.726;2024-02-16T05:52:39;1.70;99.90
10431;DHT22;5262;59.958;17.726;2024-02-16T05:55:07;1.80;99.90
10431;DHT22;5262;59.958;17.726;2024-02-16T05:57:33;1.70;99.90
10431;DHT22;5262;59.958;17.726;2024-02-16T05:59:59;1.80;99.90
10431;DHT22;5262;59.958;17.726;2024-02-16T06:02:24;1.80;99.90
10431;DHT22;5262;59.958;17.726;2024-02-16T06:04:52;1.90;99.90
10431;DHT22;5262;59.958;17.726;2024-02-16T06:07:18;1.80;99.90
10431;DHT22;5262;59.958;17.726;2024-02-16T06:09:43;1.80;99.90
10431;DHT22;5262;59.958;17.726;2024-02-16T06:12:09;1.90;99.90
10431;DHT22;5262;59.958;17.726;2024-02-16T06:14:35;1.90;99.90
10431;DHT22;5262;59.958;17.726;2024-02-16T06:17:02;1.90;99.90
10431;DHT22;5262;59.958;17.726;2024-02-16T06:19:28;2.00;99.90
10431;DHT22;5262;59.958;17.726;2024-02-16T06:21:54;2.00;99.90
10431;DHT22;5262;59.958;17.726;2024-02-16T06:24:23;2.00;99.90
10431;DHT22;5262;59.958;17.726;2024-02-16T06:26:50;2.00;99.90
10431;DHT22;5262;59.958;17.726;2024-02-16T06:29:18;2.00;99.90
10431;DHT22;5262;59.958;17.726;2024-02-16T06:31:47;2.00;99.90
10431;DHT22;5262;59.958;17.726;2024-02-16T06:34:14;2.00;99.90
10431;DHT22;5262;59.958;17.726;2024-02-16T06:36:40;2.00;99.90
10431;DHT22;5262;59.958;17.726;2024-02-16T06:39:05;2.00;99.90
10431;DHT22;5262;59.958;17.726;2024-02-16T06:41:31;2.10;99.90
10431;DHT22;5262;59.958;17.726;2024-02-16T06:43:57;2.10;99.90
10431;DHT22;5262;59.958;17.726;2024-02-16T06:46:22;2.10;99.90
10431;DHT22;5262;59.958;17.726;2024-02-16T06:48:50;2.10;99.90
10431;DHT22;5262;59.958;17.726;2024-02-16T06:51:17;2.10;99.90
10431;DHT22;5262;59.958;17.726;2024-02-16T06:53:43;2.10;99.90
10431;DHT22;5262;59.958;17.726;2024-02-16T06:56:09;2.20;99.90
10431;DHT22;5262;59.958;17.726;2024-02-16T06:58:35;2.20;99.90
10431;DHT22;5262;59.958;17.726;2024-02-16T07:01:02;2.20;99.90
10431;DHT22;5262;59.958;17.726;2024-02-16T07:03:29;2.20;99.90
10431;DHT22;5262;59.958;17.726;2024-02-16T07:05:54;2.20;99.90
10431;DHT22;5262;59.958;17.726;2024-02-16T07:08:20;2.20;99.90
10431;DHT22;5262;59.958;17.726;2024-02-16T07:10:46;2.20;99.90
10431;DHT22;5262;59.958;17.726;2024-02-16T07:13:13;2.20;99.90
10431;DHT22;5262;59.958;17.726;2024-02-16T07:15:38;2.20;99.90
10431;DHT22;5262;59.958;17.726;2024-02-16T07:18:05;2.20;99.90
10431;DHT22;5262;59.958;17.726;2024-02-16T07:20:31;2.20;99.90
10431;DHT22;5262;59.958;17.726;2024-02-16T07:22:57;2.20;99.90
10431;DHT22;5262;59.958;17.726;2024-02-16T07:25:22;2.20;99.90
10431;DHT22;5262;59.958;17.726;2024-02-16T07:27:48;2.20;99.90
10431;DHT22;5262;59.958;17.726;2024-02-16T07:30:14;2.20;99.90
10431;DHT22;5262;59.958;17.726;2024-02-16T07:32:40;2.20;99.90
10431;DHT22;5262;59.958;17.726;2024-02-16T07:35:06;2.20;99.90
10431;DHT22;5262;59.958;17.726;2024-02-16T07:37:33;2.20;99.90
10431;DHT22;5262;59.958;17.726;2024-02-16T07:39:58;2.30;99.90
10431;DHT22;5262;59.958;17.726;2024-02-16T07:42:24;2.30;99.90
10431;DHT22;5262;59.958;17.726;2024-02-16T07:44:49;2.30;99.90
10431;DHT22;5262;59.958;17.726;2024-02-16T07:47:16;2.30;99.90
10431;DHT22;5262;59.958;17.726;2024-02-16T07:49:42;2.30;99.90
10431;DHT22;5262;59.958;17.726;2024-02-16T07:52:07;2.30;99.90
10431;DHT22;5262;59.958;17.726;2024-02-16T07:54:34;2.30;99.90
10431;DHT22;5262;59.958;17.726;2024-02-16T07:57:00;2.30;99.90
10431;DHT22;5262;59.958;17.726;2024-02-16T07:59:26;2.30;99.90
10431;DHT22;5262;59.958;17.726;2024-02-16T08:01:51;2.40;99.90
10431;DHT22;5262;59.958;17.726;2024-02-16T08:04:17;2.40;99.90
10431;DHT22;5262;59.958;17.726;2024-02-16T08:06:42;2.40;99.90
10431;DHT22;5262;59.958;17.726;2024-02-16T08:09:08;2.30;99.90
10431;DHT22;5262;59.958;17.726;2024-02-16T08:11:34;2.40;99.90
10431;DHT22;5262;59.958;17.726;2024-02-16T08:14:00;2.30;99.90
10431;DHT22;5262;59.958;17.726;2024-02-16T08:16:29;2.30;99.90
10431;DHT22;5262;59.958;17.726;2024-02-16T08:18:55;2.30;99.90
10431;DHT22;5262;59.958;17.726;2024-02-16T08:21:20;2.40;99.90
10431;DHT22;5262;59.958;17.726;2024-02-16T08:23:46;2.40;99.90
10431;DHT22;5262;59.958;17.726;2024-02-16T08:26:12;2.40;99.90
10431;DHT22;5262;59.958;17.726;2024-02-16T08:28:38;2.30;99.90
10431;DHT22;5262;59.958;17.726;2024-02-16T08:31:05;2.40;99.90
10431;DHT22;5262;59.958;17.726;2024-02-16T08:33:32;2.40;99.90
10431;DHT22;5262;59.958;17.726;2024-02-16T08:35:58;2.40;99.90
10431;DHT22;5262;59.958;17.726;2024-02-16T08:38:24;2.40;99.90
10431;DHT22;5262;59.958;17.726;2024-02-16T08:40:49;2.50;99.90
10431;DHT22;5262;59.958;17.726;2024-02-16T08:43:17;2.50;99.90
10431;DHT22;5262;59.958;17.726;2024-02-16T08:45:43;2.60;99.90
10431;DHT22;5262;59.958;17.726;2024-02-16T08:48:08;2.60;99.90
10431;DHT22;5262;59.958;17.726;2024-02-16T08:50:34;2.70;99.90
10431;DHT22;5262;59.958;17.726;2024-02-16T08:53:00;2.60;99.90
10431;DHT22;5262;59.958;17.726;2024-02-16T08:55:26;2.70;99.90
10431;DHT22;5262;59.958;17.726;2024-02-16T08:57:52;2.70;99.90
10431;DHT22;5262;59.958;17.726;2024-02-16T09:00:18;2.70;99.90
10431;DHT22;5262;59.958;17.726;2024-02-16T09:02:44;2.80;99.90
10431;DHT22;5262;59.958;17.726;2024-02-16T09:05:11;2.70;99.90
10431;DHT22;5262;59.958;17.726;2024-02-16T09:07:37;2.70;99.90
10431;DHT22;5262;59.958;17.726;2024-02-16T09:10:02;2.80;99.90
10431;DHT22;5262;59.958;17.726;2024-02-16T09:12:29;2.80;99.90
10431;DHT22;5262;59.958;17.726;2024-02-16T09:14:55;2.90;99.90
10431;DHT22;5262;59.958;17.726;2024-02-16T09:17:21;2.90;99.90
10431;DHT22;5262;59.958;17.726;2024-02-16T09:19:46;2.90;99.90
10431;DHT22;5262;59.958;17.726;2024-02-16T09:22:12;3.00;99.90
10431;DHT22;5262;59.958;17.726;2024-02-16T09:24:38;2.90;99.90
10431;DHT22;5262;59.958;17.726;2024-02-16T09:27:04;2.90;99.90
10431;DHT22;5262;59.958;17.726;2024-02-16T09:29:30;3.00;99.90
10431;DHT22;5262;59.958;17.726;2024-02-16T09:31:56;3.00;99.90
10431;DHT22;5262;59.958;17.726;2024-02-16T09:34:21;3.00;99.90
10431;DHT22;5262;59.958;17.726;2024-02-16T09:36:47;3.00;99.90
10431;DHT22;5262;59.958;17.726;2024-02-16T09:39:13;3.00;99.90
10431;DHT22;5262;59.958;17.726;2024-02-16T09:41:42;3.00;99.90
10431;DHT22;5262;59.958;17.726;2024-02-16T09:44:08;3.10;99.90
10431;DHT22;5262;59.958;17.726;2024-02-16T09:46:35;3.20;99.90
10431;DHT22;5262;59.958;17.726;2024-02-16T09:49:02;3.20;99.90
10431;DHT22;5262;59.958;17.726;2024-02-16T09:51:32;3.30;99.90
10431;DHT22;5262;59.958;17.726;2024-02-16T09:54:01;3.30;99.90
10431;DHT22;5262;59.958;17.726;2024-02-16T09:56:26;3.40;99.90
10431;DHT22;5262;59.958;17.726;2024-02-16T09:58:53;3.40;99.90
10431;DHT22;5262;59.958;17.726;2024-02-16T10:01:21;3.50;99.90
10431;DHT22;5262;59.958;17.726;2024-02-16T10:03:49;3.50;99.90
10431;DHT22;5262;59.958;17.726;2024-02-16T10:06:16;3.50;99.90
10431;DHT22;5262;59.958;17.726;2024-02-16T10:11:14;3.60;99.90
10431;DHT22;5262;59.958;17.726;2024-02-16T10:13:40;3.60;99.90
10431;DHT22;5262;59.958;17.726;2024-02-16T10:16:10;3.60;99.90
10431;DHT22;5262;59.958;17.726;2024-02-16T10:18:38;3.50;99.90
10431;DHT22;5262;59.958;17.726;2024-02-16T10:21:04;3.60;99.90
10431;DHT22;5262;59.958;17.726;2024-02-16T10:23:30;3.70;99.90
10431;DHT22;5262;59.958;17.726;2024-02-16T10:25:56;3.70;99.90
10431;DHT22;5262;59.958;17.726;2024-02-16T10:28:24;3.80;99.90
10431;DHT22;5262;59.958;17.726;2024-02-16T10:31:00;3.80;99.90
10431;DHT22;5262;59.958;17.726;2024-02-16T10:33:31;3.80;99.90
10431;DHT22;5262;59.958;17.726;2024-02-16T10:35:58;3.90;99.90
10431;DHT22;5262;59.958;17.726;2024-02-16T10:38:24;3.90;99.90
10431;DHT22;5262;59.958;17.726;2024-02-16T10:40:51;3.90;99.90
10431;DHT22;5262;59.958;17.726;2024-02-16T10:43:18;4.00;99.90
10431;DHT22;5262;59.958;17.726;2024-02-16T10:45:43;4.00;99.90
10431;DHT22;5262;59.958;17.726;2024-02-16T10:48:11;3.90;99.90
10431;DHT22;5262;59.958;17.726;2024-02-16T10:50:37;4.00;99.90
10431;DHT22;5262;59.958;17.726;2024-02-16T10:53:24;4.00;99.90
10431;DHT22;5262;59.958;17.726;2024-02-16T10:55:51;4.00;99.90
10431;DHT22;5262;59.958;17.726;2024-02-16T10:58:17;4.10;99.90
10431;DHT22;5262;59.958;17.726;2024-02-16T11:00:54;4.10;99.90
10431;DHT22;5262;59.958;17.726;2024-02-16T11:03:27;4.10;99.90
10431;DHT22;5262;59.958;17.726;2024-02-16T11:05:54;4.10;99.90
10431;DHT22;5262;59.958;17.726;2024-02-16T11:08:21;4.00;99.90
10431;DHT22;5262;59.958;17.726;2024-02-16T11:11:01;4.10;99.90
10431;DHT22;5262;59.958;17.726;2024-02-16T11:13:35;4.00;99.90
10431;DHT22;5262;59.958;17.726;2024-02-16T11:16:03;4.20;99.90
10431;DHT22;5262;59.958;17.726;2024-02-16T11:18:32;4.20;99.90
10431;DHT22;5262;59.958;17.726;2024-02-16T11:21:02;4.20;99.90
10431;DHT22;5262;59.958;17.726;2024-02-16T11:23:31;4.20;99.90
10431;DHT22;5262;59.958;17.726;2024-02-16T11:26:04;4.20;99.90
10431;DHT22;5262;59.958;17.726;2024-02-16T11:28:34;4.10;99.90
10431;DHT22;5262;59.958;17.726;2024-02-16T11:31:00;4.10;99.90
10431;DHT22;5262;59.958;17.726;2024-02-16T11:33:26;4.10;99.90
10431;DHT22;5262;59.958;17.726;2024-02-16T11:35:57;4.20;99.90
10431;DHT22;5262;59.958;17.726;2024-02-16T11:38:23;4.10;99.90
10431;DHT22;5262;59.958;17.726;2024-02-16T11:41:03;4.10;99.90
10431;DHT22;5262;59.958;17.726;2024-02-16T11:43:30;4.10;99.90
10431;DHT22;5262;59.958;17.726;2024-02-16T11:45:58;4.20;99.90
10431;DHT22;5262;59.958;17.726;2024-02-16T11:48:27;4.20;99.90
10431;DHT22;5262;59.958;17.726;2024-02-16T11:51:03;4.20;99.90
10431;DHT22;5262;59.958;17.726;2024-02-16T11:53:30;4.30;99.90
10431;DHT22;5262;59.958;17.726;2024-02-16T11:55:56;4.30;99.90
10431;DHT22;5262;59.958;17.726;2024-02-16T11:58:22;4.20;99.90
10431;DHT22;5262;59.958;17.726;2024-02-16T12:00:49;4.30;99.90
10431;DHT22;5262;59.958;17.726;2024-02-16T12:03:23;4.30;99.90
10431;DHT22;5262;59.958;17.726;2024-02-16T12:05:52;4.30;99.90
10431;DHT22;5262;59.958;17.726;2024-02-16T12:08:19;4.40;99.90
10431;DHT22;5262;59.958;17.726;2024-02-16T12:10:46;4.40;99.90
10431;DHT22;5262;59.958;17.726;2024-02-16T12:13:12;4.40;99.90
10431;DHT22;5262;59.958;17.726;2024-02-16T12:15:38;4.40;99.90
10431;DHT22;5262;59.958;17.726;2024-02-16T12:18:04;4.50;99.90
10431;DHT22;5262;59.958;17.726;2024-02-16T12:20:30;4.50;99.90
10431;DHT22;5262;59.958;17.726;2024-02-16T12:22:59;4.50;99.90
10431;DHT22;5262;59.958;17.726;2024-02-16T12:25:27;4.40;99.90
10431;DHT22;5262;59.958;17.726;2024-02-16T12:27:53;4.50;99.90
10431;DHT22;5262;59.958;17.726;2024-02-16T12:30:18;4.50;99.90
10431;DHT22;5262;59.958;17.726;2024-02-16T12:32:44;4.50;99.90
10431;DHT22;5262;59.958;17.726;2024-02-16T12:35:10;4.50;99.90
10431;DHT22;5262;59.958;17.726;2024-02-16T12:37:36;4.40;99.90
10431;DHT22;5262;59.958;17.726;2024-02-16T12:40:03;4.50;99.90
10431;DHT22;5262;59.958;17.726;2024-02-16T12:42:28;4.50;99.90
10431;DHT22;5262;59.958;17.726;2024-02-16T12:44:54;4.60;99.90
10431;DHT22;5262;59.958;17.726;2024-02-16T12:47:20;4.60;99.90
10431;DHT22;5262;59.958;17.726;2024-02-16T12:49:46;4.60;99.90
10431;DHT22;5262;59.958;17.726;2024-02-16T12:52:19;4.50;99.90
10431;DHT22;5262;59.958;17.726;2024-02-16T12:54:48;4.60;99.90
10431;DHT22;5262;59.958;17.726;2024-02-16T12:57:13;4.60;99.90
10431;DHT22;5262;59.958;17.726;2024-02-16T12:59:39;4.60;99.90
10431;DHT22;5262;59.958;17.726;2024-02-16T13:02:05;4.60;99.90
10431;DHT22;5262;59.958;17.726;2024-02-16T13:04:30;4.70;99.90
10431;DHT22;5262;59.958;17.726;2024-02-16T13:06:58;4.70;99.90
10431;DHT22;5262;59.958;17.726;2024-02-16T13:09:23;4.80;99.90
10431;DHT22;5262;59.958;17.726;2024-02-16T13:11:49;4.80;99.90
10431;DHT22;5262;59.958;17.726;2024-02-16T13:14:20;4.70;99.90
10431;DHT22;5262;59.958;17.726;2024-02-16T13:16:46;4.60;99.90
10431;DHT22;5262;59.958;17.726;2024-02-16T13:19:12;4.60;99.90
10431;DHT22;5262;59.958;17.726;2024-02-16T13:21:38;4.70;99.90
10431;DHT22;5262;59.958;17.726;2024-02-16T13:24:05;4.70;99.90
10431;DHT22;5262;59.958;17.726;2024-02-16T13:26:31;4.70;99.90
10431;DHT22;5262;59.958;17.726;2024-02-16T13:28:57;4.70;99.90
10431;DHT22;5262;59.958;17.726;2024-02-16T13:31:23;4.60;99.90
10431;DHT22;5262;59.958;17.726;2024-02-16T13:33:52;4.70;99.90
10431;DHT22;5262;59.958;17.726;2024-02-16T13:36:18;4.60;99.90
10431;DHT22;5262;59.958;17.726;2024-02-16T13:38:43;4.60;99.90
10431;DHT22;5262;59.958;17.726;2024-02-16T13:41:09;4.70;99.90
10431;DHT22;5262;59.958;17.726;2024-02-16T13:43:35;4.70;99.90
10431;DHT22;5262;59.958;17.726;2024-02-16T13:46:00;4.70;99.90
10431;DHT22;5262;59.958;17.726;2024-02-16T13:48:26;4.70;99.90
10431;DHT22;5262;59.958;17.726;2024-02-16T13:50:54;4.70;99.90
10431;DHT22;5262;59.958;17.726;2024-02-16T13:53:20;4.60;99.90
10431;DHT22;5262;59.958;17.726;2024-02-16T13:55:48;4.60;99.90
10431;DHT22;5262;59.958;17.726;2024-02-16T13:58:14;4.60;99.90
10431;DHT22;5262;59.958;17.726;2024-02-16T14:00:40;4.60;99.90
10431;DHT22;5262;59.958;17.726;2024-02-16T14:03:10;4.60;99.90
10431;DHT22;5262;59.958;17.726;2024-02-16T14:05:39;4.60;99.90
10431;DHT22;5262;59.958;17.726;2024-02-16T14:08:05;4.60;99.90
10431;DHT22;5262;59.958;17.726;2024-02-16T14:10:32;4.60;99.90
10431;DHT22;5262;59.958;17.726;2024-02-16T14:12:58;4.60;99.90
10431;DHT22;5262;59.958;17.726;2024-02-16T14:15:24;4.70;99.90
10431;DHT22;5262;59.958;17.726;2024-02-16T14:17:50;4.70;99.90
10431;DHT22;5262;59.958;17.726;2024-02-16T14:20:15;4.70;99.90
10431;DHT22;5262;59.958;17.726;2024-02-16T14:22:41;4.60;99.90
10431;DHT22;5262;59.958;17.726;2024-02-16T14:25:07;4.60;99.90
10431;DHT22;5262;59.958;17.726;2024-02-16T14:27:36;4.60;99.90
10431;DHT22;5262;59.958;17.726;2024-02-16T14:30:02;4.70;99.90
10431;DHT22;5262;59.958;17.726;2024-02-16T14:32:28;4.60;99.90
10431;DHT22;5262;59.958;17.726;2024-02-16T14:34:53;4.60;99.90
10431;DHT22;5262;59.958;17.726;2024-02-16T14:37:19;4.70;99.90
10431;DHT22;5262;59.958;17.726;2024-02-16T14:39:45;4.70;99.90
10431;DHT22;5262;59.958;17.726;2024-02-16T14:42:10;4.70;99.90
10431;DHT22;5262;59.958;17.726;2024-02-16T14:44:36;4.60;99.90
10431;DHT22;5262;59.958;17.726;2024-02-16T14:47:02;4.60;99.90
10431;DHT22;5262;59.958;17.726;2024-02-16T14:49:27;4.70;99.90
10431;DHT22;5262;59.958;17.726;2024-02-16T14:51:56;4.70;99.90
10431;DHT22;5262;59.958;17.726;2024-02-16T14:54:22;4.70;99.90
10431;DHT22;5262;59.958;17.726;2024-02-16T14:56:51;4.60;99.90
10431;DHT22;5262;59.958;17.726;2024-02-16T14:59:18;4.70;99.90
10431;DHT22;5262;59.958;17.726;2024-02-16T15:01:44;4.70;99.90
10431;DHT22;5262;59.958;17.726;2024-02-16T15:04:10;4.70;99.90
10431;DHT22;5262;59.958;17.726;2024-02-16T15:06:36;4.80;99.90
10431;DHT22;5262;59.958;17.726;2024-02-16T15:09:02;4.80;99.90
10431;DHT22;5262;59.958;17.726;2024-02-16T15:11:31;4.70;99.90
10431;DHT22;5262;59.958;17.726;2024-02-16T15:13:57;4.70;99.90
10431;DHT22;5262;59.958;17.726;2024-02-16T15:16:23;4.70;99.90
10431;DHT22;5262;59.958;17.726;2024-02-16T15:18:49;4.80;99.90
10431;DHT22;5262;59.958;17.726;2024-02-16T15:21:14;4.70;99.90
10431;DHT22;5262;59.958;17.726;2024-02-16T15:23:40;4.70;99.90
10431;DHT22;5262;59.958;17.726;2024-02-16T15:26:06;4.80;99.90
10431;DHT22;5262;59.958;17.726;2024-02-16T15:28:31;4.80;99.90
10431;DHT22;5262;59.958;17.726;2024-02-16T15:30:57;4.70;99.90
10431;DHT22;5262;59.958;17.726;2024-02-16T15:33:23;4.80;99.90
10431;DHT22;5262;59.958;17.726;2024-02-16T15:35:49;4.70;99.90
10431;DHT22;5262;59.958;17.726;2024-02-16T15:38:14;4.70;99.90
10431;DHT22;5262;59.958;17.726;2024-02-16T15:40:41;4.70;99.90
10431;DHT22;5262;59.958;17.726;2024-02-16T15:43:06;4.70;99.90